Главная страница
METAR-TAF:

METAR-TAF

Аэропорты :

Хартум, Судан

широта: 15-36N, долгота: 032-33E, высота над уровнем моря: 382 м

Текущие метеонаблюдения

Эта сводка был подготовлена 34 минут назад, в 22:30 UTC
Ветер 9 Узел от юго-западный
Температура 28°C
Влажность 55%
Давление 1009 hPa
Видимость 10 км и более
Нет облачности ниже 1500 м, и нет кучево-дождевой облачности

METAR: HSSS 212230Z 22009KT CAVOK 28/18 Q1009 NOSIG

Время: 02:04 (23:04 UTC)

Прогноз

Эта сводка был подготовлена 6 часа и 4 минут назад, в 17:00 UTC
Прогноз действительный с 21-го 18 UTC до 22-го 24 UTC
Ветер 6 Узел от южный с порывами до 16 Узел
Видимость 10 км и более
небольшая облачность на высоте 4000 фута
Отдельные облака на высоте 14000 фута
Вероятность 30% :
временами
С 21-го 18 UTC до 21-го 24 UTC
Видимость: 6000 м
небольшая облачность на высоте 4500 фута, Кучево-дождевые.
гроза, дождь

TAF: HSSS 211700Z 2118/2224 18006G16KT 9999 FEW040 SCT140 PROB30 TEMPO 2118/2124 6000 TSRA FEW045CB

Метеонаблюдения и прогнозы для более 4000 аэропортов (сводки METAR и TAF).

Имеющиеся станции представлены на карте желтыми и красными точками.

Чтобы увидеть название станции, наведите на нее мышь.

Затем щелкните, чтобы увидеть метеонаблюдения и метеопрогнозы.

Управление картой: чтобы увеличить масштаб, щелкните зеленые кнопки с черным крестиком; чтобы уменьшить масштаб, щелкните зеленую кнопку с тире; для просмотра соседних карт щелкайте зеленые стрелки.


METAR-TAF: